Guadalupe — WDG4440 — position and weather

sailwx.info

Track history (hours):
 
Tides and Currents Weather Stations Pressure Air Temp Water Temp Dewpoint Dewpoint Depression Visibility Wind Speed Wind Dir Waves Ship Positions

Guadalupe

Owner: Higman Barge Lines., Inc, Orange, TX. More information available from US FCC via Universal Licensing System and Coast Guard Vessel Documentation Center.

Last reported at 2018-May-22 16:00 UTC. Time now 2018-May-22 16:04 UTC.
Position N 30°08' W 093°19'.

Length 115 m.

Type: . MMSI: 367536590.

Date/timePositionNaut miles runAvg speedWind from/ knotsBaromVisibWave heightAir tempDewpointWater temp
2018-May-22 16:00N 30°08' W 093°19'0 0.0
2018-May-22 15:30N 30°08' W 093°19'0 0.0
2018-May-22 14:59N 30°08' W 093°19'0 0.0
2018-May-22 14:31N 30°08' W 093°19'0 0.0
2018-May-22 14:00N 30°08' W 093°19'0 0.0
2018-May-22 13:30N 30°08' W 093°19'0 0.0
2018-May-22 13:00N 30°08' W 093°19'0 0.0
2018-May-22 12:28N 30°08' W 093°19'0 0.0
2018-May-22 12:01N 30°08' W 093°19'0 0.0
2018-May-22 11:30N 30°08' W 093°19'0 0.0
2018-May-22 11:00N 30°08' W 093°19'0 0.0
2018-May-22 10:30N 30°08' W 093°19'0 0.0
2018-May-22 10:00N 30°08' W 093°19'0 0.0
2018-May-22 09:30N 30°08' W 093°19'0 0.0
2018-May-22 09:00N 30°08' W 093°19'0 0.0
2018-May-22 08:31N 30°08' W 093°19'0 0.0
2018-May-22 08:00N 30°08' W 093°19'0 0.0
2018-May-22 07:30N 30°08' W 093°19'0 0.0
2018-May-22 07:01N 30°08' W 093°19'0 0.0
2018-May-22 06:29N 30°08' W 093°19'0 0.0
2018-May-22 06:00N 30°08' W 093°19'0 0.0
2018-May-22 05:30N 30°08' W 093°19'0 0.0
2018-May-22 05:01N 30°08' W 093°19'1 1.5
2018-May-22 04:30N 30°08' W 093°20'1 2.7
2018-May-22 04:00N 30°06' W 093°20'2 4.8
2018-May-22 03:30N 30°04' W 093°21'2 4.1
2018-May-22 03:00N 30°04' W 093°23'3 5.7
2018-May-22 02:31N 30°04' W 093°26'3 5.7
2018-May-22 02:00N 30°04' W 093°30'3 5.6
2018-May-22 01:30N 30°04' W 093°33'3 5.8
2018-May-22 00:59N 30°04' W 093°36'3 5.9
2018-May-22 00:27N 30°04' W 093°40'3 5.8
2018-May-22 00:00N 30°03' W 093°43'3 5.6
2018-May-21 23:30N 30°01' W 093°45'3 5.9
2018-May-21 23:00N 29°59' W 093°48'3 6.4
2018-May-21 22:30N 29°58' W 093°51'3 7.0
2018-May-21 22:00N 29°55' W 093°53'4 7.4
2018-May-21 21:30N 29°52' W 093°56'4 7.0
2018-May-21 21:00N 29°49' W 093°58'3 6.0
2018-May-21 20:30N 29°48' W 094°01'3 5.9
2018-May-21 20:00N 29°46' W 094°03'3 5.7
2018-May-21 19:31N 29°44' W 094°06'3 5.6
2018-May-21 19:00N 29°42' W 094°09'3 5.2
2018-May-21 18:30N 29°41' W 094°11'3 5.4
2018-May-21 18:00N 29°40' W 094°14'3 5.5
2018-May-21 17:30N 29°39' W 094°17'3 5.5
2018-May-21 17:00N 29°37' W 094°20'3 5.5
2018-May-21 16:28N 29°36' W 094°23'21 4.7
2018-May-21 11:56N 29°25' W 094°44'3 5.7
2018-May-21 11:29N 29°23' W 094°46'2 5.0
2018-May-21 11:01N 29°22' W 094°48'6 6.9
2018-May-21 10:07N 29°28' W 094°51'1 7.3
2018-May-21 10:00N 29°29' W 094°52'3 7.1
2018-May-21 09:30N 29°32' W 094°54'3 6.7
2018-May-21 09:01N 29°35' W 094°56'3 6.8
2018-May-21 08:31N 29°38' W 094°58'4 7.4
2018-May-21 07:58N 29°41' W 094°59'5 6.4
2018-May-21 07:10N 29°45' W 095°04'4 0.1
2018-May-19 05:55N 29°44' W 095°08'5 0.3
2018-May-18 11:05N 29°43' W 095°14'0 0.0
2018-May-18 10:40N 29°43' W 095°14'0 0.0
2018-May-18 10:30N 29°43' W 095°14'0 0.0
2018-May-18 10:00N 29°43' W 095°14'0 0.0
2018-May-18 09:30N 29°43' W 095°14'0 0.0
2018-May-18 09:00N 29°43' W 095°14'0 0.0
2018-May-18 08:28N 29°43' W 095°14'0 0.0
2018-May-18 08:00N 29°43' W 095°14'0 0.0
2018-May-18 07:30N 29°43' W 095°14'0 0.0
2018-May-18 06:57N 29°43' W 095°14'0 0.0
2018-May-18 06:30N 29°43' W 095°14'0 0.0
2018-May-18 06:01N 29°43' W 095°14'0 0.0
2018-May-18 05:30N 29°43' W 095°14'0 0.0
2018-May-18 05:00N 29°43' W 095°14'0 0.0
2018-May-18 04:29N 29°43' W 095°14'0 0.0
2018-May-18 03:28N 29°43' W 095°14'0 0.0
2018-May-18 02:58N 29°43' W 095°14'4 0.8
2018-May-17 22:12N 29°45' W 095°11'1 5.3
2018-May-17 21:58N 29°44' W 095°09'4 0.4
2018-May-17 13:45N 29°46' W 095°05'0 1.1
2018-May-17 13:30N 29°46' W 095°06'0 0.8
2018-May-17 13:00N 29°46' W 095°05'3 5.9
2018-May-17 12:30N 29°44' W 095°03'2 5.0
2018-May-17 12:00N 29°42' W 095°01'3 5.8
2018-May-17 11:30N 29°40' W 094°58'3 5.7
2018-May-17 11:00N 29°37' W 094°57'3 5.3
2018-May-17 10:31N 29°37' W 095°00'1 1.8
2018-May-17 10:00N 29°37' W 095°01'0 0.1
2018-May-17 09:28N 29°37' W 095°02'0 0.0
2018-May-17 08:58N 29°37' W 095°02'0 0.0
2018-May-17 08:25N 29°37' W 095°02'0 0.0
2018-May-17 07:55N 29°37' W 095°02'0 0.0
2018-May-17 07:28N 29°37' W 095°02'0 0.1
2018-May-17 07:00N 29°37' W 095°02'0 0.1
2018-May-17 06:30N 29°37' W 095°02'0 0.0
2018-May-17 05:58N 29°37' W 095°02'0 0.0
2018-May-17 05:28N 29°37' W 095°02'0 0.0
2018-May-17 05:00N 29°37' W 095°02'0 0.0
2018-May-17 04:30N 29°37' W 095°02'0 0.0
2018-May-17 04:00N 29°37' W 095°02'0 0.0
2018-May-17 03:30N 29°37' W 095°02'0 0.0
2018-May-17 03:00N 29°37' W 095°02'0 0.0
2018-May-17 02:30N 29°37' W 095°02'0 0.0
2018-May-17 02:00N 29°37' W 095°02'0 0.0
2018-May-17 01:30N 29°37' W 095°02'0 0.0
2018-May-17 01:00N 29°37' W 095°02'0 0.0
2018-May-17 00:30N 29°37' W 095°02'0 0.0
2018-May-17 00:00N 29°37' W 095°02'0 0.0
2018-May-16 23:30N 29°37' W 095°02'0 0.0
2018-May-16 23:00N 29°37' W 095°02'0 0.1
2018-May-16 22:30N 29°37' W 095°02'0 0.0
2018-May-16 21:51N 29°37' W 095°02'0 0.0
2018-May-16 21:30N 29°37' W 095°02'0 0.0
2018-May-16 20:57N 29°37' W 095°02'0 0.0
2018-May-16 20:30N 29°37' W 095°02'0 0.0
2018-May-16 19:58N 29°37' W 095°02'0 0.0
2018-May-16 19:28N 29°37' W 095°02'0 0.0
2018-May-16 18:58N 29°37' W 095°02'0 0.0
2018-May-16 18:28N 29°37' W 095°02'0 0.0
2018-May-16 17:58N 29°37' W 095°02'0 0.0
2018-May-16 17:28N 29°37' W 095°02'0 0.0
2018-May-16 16:55N 29°37' W 095°02'0 0.0
2018-May-16 16:28N 29°37' W 095°02'0 0.0
2018-May-16 15:58N 29°37' W 095°02'0 0.0
2018-May-16 15:28N 29°37' W 095°02'0 0.0
2018-May-16 14:58N 29°37' W 095°02'0 0.0
2018-May-16 14:28N 29°37' W 095°02'0 0.0
2018-May-16 13:58N 29°37' W 095°02'0 0.0
2018-May-16 13:28N 29°37' W 095°02'0 0.7
2018-May-16 13:00N 29°36' W 095°01'0 0.7
2018-May-16 12:30N 29°37' W 095°02'0 0.0
2018-May-16 12:00N 29°37' W 095°02'0 0.3
2018-May-16 11:28N 29°37' W 095°02'0 0.0
2018-May-16 10:58N 29°37' W 095°02'0 0.0
2018-May-16 10:19N 29°37' W 095°02'0 0.0
2018-May-16 09:58N 29°37' W 095°02'0 0.0
2018-May-16 09:28N 29°37' W 095°02'0 0.0
2018-May-16 08:58N 29°37' W 095°02'0 0.0
2018-May-16 08:28N 29°37' W 095°02'0 0.0
2018-May-16 07:58N 29°37' W 095°02'0 0.0
2018-May-16 07:28N 29°37' W 095°02'0 0.0
2018-May-16 06:58N 29°37' W 095°02'0 0.0
2018-May-16 06:28N 29°37' W 095°02'0 0.0
2018-May-16 05:58N 29°37' W 095°02'0 0.0
2018-May-16 05:28N 29°37' W 095°02'0 0.0
2018-May-16 04:58N 29°37' W 095°02'0 0.0
2018-May-16 04:28N 29°37' W 095°02'0 0.0
2018-May-16 03:58N 29°37' W 095°02'0 0.0
2018-May-16 03:28N 29°37' W 095°02'0 0.0
2018-May-16 02:58N 29°37' W 095°02'0 0.0
2018-May-16 02:28N 29°37' W 095°02'0 0.1
2018-May-16 02:00N 29°37' W 095°01'0 0.2
2018-May-16 01:30N 29°37' W 095°02'0 0.0
2018-May-16 01:00N 29°37' W 095°02'0 0.0
2018-May-16 00:30N 29°37' W 095°02'0 0.0
2018-May-16 00:00N 29°37' W 095°02'0 0.0
2018-May-15 23:30N 29°37' W 095°02'0 0.0
2018-May-15 22:59N 29°37' W 095°02'0 0.1
2018-May-15 22:30N 29°37' W 095°02'3 5.3
2018-May-15 22:00N 29°37' W 094°59'1 2.6
2018-May-15 21:30N 29°38' W 094°58'2 4.3
2018-May-15 21:00N 29°40' W 094°59'3 5.6
2018-May-15 20:30N 29°42' W 095°01'5 3.0
2018-May-15 18:45N 29°45' W 095°06'0 0.1
2018-May-15 15:13N 29°46' W 095°06'0 0.1
2018-May-15 14:36N 29°46' W 095°06'1 4.9
2018-May-15 14:28N 29°46' W 095°05'1 2.5
2018-May-15 13:59N 29°47' W 095°04'1 1.4
2018-May-15 13:29N 29°47' W 095°05'1 2.0
2018-May-15 13:00N 29°47' W 095°04'2 3.5
2018-May-15 12:30N 29°46' W 095°04'1 1.1
2018-May-15 11:32N 29°46' W 095°06'0 0.1
2018-May-15 11:30N 29°46' W 095°06'0 0.8
2018-May-15 11:00N 29°45' W 095°06'0 0.0
2018-May-15 10:30N 29°45' W 095°06'0 0.0
2018-May-15 10:00N 29°45' W 095°06'0 0.0
2018-May-15 08:12N 29°45' W 095°06'0 0.0
2018-May-15 06:33N 29°45' W 095°06'0 0.0
2018-May-15 06:24N 29°45' W 095°06'0 0.0
2018-May-15 05:42N 29°45' W 095°06'0 0.0
2018-May-15 04:15N 29°45' W 095°06'0 0.0
2018-May-15 03:39N 29°45' W 095°06'0 0.0
2018-May-15 03:12N 29°45' W 095°06'0 0.0
2018-May-15 03:00N 29°45' W 095°06'0 0.0
2018-May-15 02:30N 29°45' W 095°06'0 0.0
2018-May-15 01:57N 29°45' W 095°06'0 0.0
2018-May-15 01:30N 29°45' W 095°06'  
2018-May-12 17:02N 29°45' W 095°07'0 1.3
2018-May-12 17:00N 29°45' W 095°06'  
Track history (hours):
 
Tides and Currents Weather Stations Pressure Air Temp Water Temp Dewpoint Dewpoint Depression Visibility Wind Speed Wind Dir Waves Ship Positions

Guadalupe

Owner: Higman Barge Lines., Inc, Orange, TX. More information available from US FCC via Universal Licensing System and Coast Guard Vessel Documentation Center.

Last reported at 2018-May-22 16:00 UTC. Time now 2018-May-22 16:04 UTC.
Position N 30°08' W 093°19'.

Length 115 m.

Type: . MMSI: 367536590.

Date/timePositionNaut miles runAvg speedWind from/ knotsBaromVisibWave heightAir tempDewpointWater temp
2018-May-22 16:00N 30°08' W 093°19'0 0.0
2018-May-22 15:30N 30°08' W 093°19'0 0.0
2018-May-22 14:59N 30°08' W 093°19'0 0.0
2018-May-22 14:31N 30°08' W 093°19'0 0.0
2018-May-22 14:00N 30°08' W 093°19'0 0.0
2018-May-22 13:30N 30°08' W 093°19'0 0.0
2018-May-22 13:00N 30°08' W 093°19'0 0.0
2018-May-22 12:28N 30°08' W 093°19'0 0.0
2018-May-22 12:01N 30°08' W 093°19'0 0.0
2018-May-22 11:30N 30°08' W 093°19'0 0.0
2018-May-22 11:00N 30°08' W 093°19'0 0.0
2018-May-22 10:30N 30°08' W 093°19'0 0.0
2018-May-22 10:00N 30°08' W 093°19'0 0.0
2018-May-22 09:30N 30°08' W 093°19'0 0.0
2018-May-22 09:00N 30°08' W 093°19'0 0.0
2018-May-22 08:31N 30°08' W 093°19'0 0.0
2018-May-22 08:00N 30°08' W 093°19'0 0.0
2018-May-22 07:30N 30°08' W 093°19'0 0.0
2018-May-22 07:01N 30°08' W 093°19'0 0.0
2018-May-22 06:29N 30°08' W 093°19'0 0.0
2018-May-22 06:00N 30°08' W 093°19'0 0.0
2018-May-22 05:30N 30°08' W 093°19'0 0.0
2018-May-22 05:01N 30°08' W 093°19'1 1.5
2018-May-22 04:30N 30°08' W 093°20'1 2.7
2018-May-22 04:00N 30°06' W 093°20'2 4.8
2018-May-22 03:30N 30°04' W 093°21'2 4.1
2018-May-22 03:00N 30°04' W 093°23'3 5.7
2018-May-22 02:31N 30°04' W 093°26'3 5.7
2018-May-22 02:00N 30°04' W 093°30'3 5.6
2018-May-22 01:30N 30°04' W 093°33'3 5.8
2018-May-22 00:59N 30°04' W 093°36'3 5.9
2018-May-22 00:27N 30°04' W 093°40'3 5.8
2018-May-22 00:00N 30°03' W 093°43'3 5.6
2018-May-21 23:30N 30°01' W 093°45'3 5.9
2018-May-21 23:00N 29°59' W 093°48'3 6.4
2018-May-21 22:30N 29°58' W 093°51'3 7.0
2018-May-21 22:00N 29°55' W 093°53'4 7.4
2018-May-21 21:30N 29°52' W 093°56'4 7.0
2018-May-21 21:00N 29°49' W 093°58'3 6.0
2018-May-21 20:30N 29°48' W 094°01'3 5.9
2018-May-21 20:00N 29°46' W 094°03'3 5.7
2018-May-21 19:31N 29°44' W 094°06'3 5.6
2018-May-21 19:00N 29°42' W 094°09'3 5.2
2018-May-21 18:30N 29°41' W 094°11'3 5.4
2018-May-21 18:00N 29°40' W 094°14'3 5.5
2018-May-21 17:30N 29°39' W 094°17'3 5.5
2018-May-21 17:00N 29°37' W 094°20'3 5.5
2018-May-21 16:28N 29°36' W 094°23'21 4.7
2018-May-21 11:56N 29°25' W 094°44'3 5.7
2018-May-21 11:29N 29°23' W 094°46'2 5.0
2018-May-21 11:01N 29°22' W 094°48'6 6.9
2018-May-21 10:07N 29°28' W 094°51'1 7.3
2018-May-21 10:00N 29°29' W 094°52'3 7.1
2018-May-21 09:30N 29°32' W 094°54'3 6.7
2018-May-21 09:01N 29°35' W 094°56'3 6.8
2018-May-21 08:31N 29°38' W 094°58'4 7.4
2018-May-21 07:58N 29°41' W 094°59'5 6.4
2018-May-21 07:10N 29°45' W 095°04'4 0.1
2018-May-19 05:55N 29°44' W 095°08'5 0.3
2018-May-18 11:05N 29°43' W 095°14'0 0.0
2018-May-18 10:40N 29°43' W 095°14'0 0.0
2018-May-18 10:30N 29°43' W 095°14'0 0.0
2018-May-18 10:00N 29°43' W 095°14'0 0.0
2018-May-18 09:30N 29°43' W 095°14'0 0.0
2018-May-18 09:00N 29°43' W 095°14'0 0.0
2018-May-18 08:28N 29°43' W 095°14'0 0.0
2018-May-18 08:00N 29°43' W 095°14'0 0.0
2018-May-18 07:30N 29°43' W 095°14'0 0.0
2018-May-18 06:57N 29°43' W 095°14'0 0.0
2018-May-18 06:30N 29°43' W 095°14'0 0.0
2018-May-18 06:01N 29°43' W 095°14'0 0.0
2018-May-18 05:30N 29°43' W 095°14'0 0.0
2018-May-18 05:00N 29°43' W 095°14'0 0.0
2018-May-18 04:29N 29°43' W 095°14'0 0.0
2018-May-18 03:28N 29°43' W 095°14'0 0.0
2018-May-18 02:58N 29°43' W 095°14'4 0.8
2018-May-17 22:12N 29°45' W 095°11'1 5.3
2018-May-17 21:58N 29°44' W 095°09'4 0.4
2018-May-17 13:45N 29°46' W 095°05'0 1.1
2018-May-17 13:30N 29°46' W 095°06'0 0.8
2018-May-17 13:00N 29°46' W 095°05'3 5.9
2018-May-17 12:30N 29°44' W 095°03'2 5.0
2018-May-17 12:00N 29°42' W 095°01'3 5.8
2018-May-17 11:30N 29°40' W 094°58'3 5.7
2018-May-17 11:00N 29°37' W 094°57'3 5.3
2018-May-17 10:31N 29°37' W 095°00'1 1.8
2018-May-17 10:00N 29°37' W 095°01'0 0.1
2018-May-17 09:28N 29°37' W 095°02'0 0.0
2018-May-17 08:58N 29°37' W 095°02'0 0.0
2018-May-17 08:25N 29°37' W 095°02'0 0.0
2018-May-17 07:55N 29°37' W 095°02'0 0.0
2018-May-17 07:28N 29°37' W 095°02'0 0.1
2018-May-17 07:00N 29°37' W 095°02'0 0.1
2018-May-17 06:30N 29°37' W 095°02'0 0.0
2018-May-17 05:58N 29°37' W 095°02'0 0.0
2018-May-17 05:28N 29°37' W 095°02'0 0.0
2018-May-17 05:00N 29°37' W 095°02'0 0.0
2018-May-17 04:30N 29°37' W 095°02'0 0.0
2018-May-17 04:00N 29°37' W 095°02'0 0.0
2018-May-17 03:30N 29°37' W 095°02'0 0.0
2018-May-17 03:00N 29°37' W 095°02'0 0.0
2018-May-17 02:30N 29°37' W 095°02'0 0.0
2018-May-17 02:00N 29°37' W 095°02'0 0.0
2018-May-17 01:30N 29°37' W 095°02'0 0.0
2018-May-17 01:00N 29°37' W 095°02'0 0.0
2018-May-17 00:30N 29°37' W 095°02'0 0.0
2018-May-17 00:00N 29°37' W 095°02'0 0.0
2018-May-16 23:30N 29°37' W 095°02'0 0.0
2018-May-16 23:00N 29°37' W 095°02'0 0.1
2018-May-16 22:30N 29°37' W 095°02'0 0.0
2018-May-16 21:51N 29°37' W 095°02'0 0.0
2018-May-16 21:30N 29°37' W 095°02'0 0.0
2018-May-16 20:57N 29°37' W 095°02'0 0.0
2018-May-16 20:30N 29°37' W 095°02'0 0.0
2018-May-16 19:58N 29°37' W 095°02'0 0.0
2018-May-16 19:28N 29°37' W 095°02'0 0.0
2018-May-16 18:58N 29°37' W 095°02'0 0.0
2018-May-16 18:28N 29°37' W 095°02'0 0.0
2018-May-16 17:58N 29°37' W 095°02'0 0.0
2018-May-16 17:28N 29°37' W 095°02'0 0.0
2018-May-16 16:55N 29°37' W 095°02'0 0.0
2018-May-16 16:28N 29°37' W 095°02'0 0.0
2018-May-16 15:58N 29°37' W 095°02'0 0.0
2018-May-16 15:28N 29°37' W 095°02'0 0.0
2018-May-16 14:58N 29°37' W 095°02'0 0.0
2018-May-16 14:28N 29°37' W 095°02'0 0.0
2018-May-16 13:58N 29°37' W 095°02'0 0.0
2018-May-16 13:28N 29°37' W 095°02'0 0.7
2018-May-16 13:00N 29°36' W 095°01'0 0.7
2018-May-16 12:30N 29°37' W 095°02'0 0.0
2018-May-16 12:00N 29°37' W 095°02'0 0.3
2018-May-16 11:28N 29°37' W 095°02'0 0.0
2018-May-16 10:58N 29°37' W 095°02'0 0.0
2018-May-16 10:19N 29°37' W 095°02'0 0.0
2018-May-16 09:58N 29°37' W 095°02'0 0.0
2018-May-16 09:28N 29°37' W 095°02'0 0.0
2018-May-16 08:58N 29°37' W 095°02'0 0.0
2018-May-16 08:28N 29°37' W 095°02'0 0.0
2018-May-16 07:58N 29°37' W 095°02'0 0.0
2018-May-16 07:28N 29°37' W 095°02'0 0.0
2018-May-16 06:58N 29°37' W 095°02'0 0.0
2018-May-16 06:28N 29°37' W 095°02'0 0.0
2018-May-16 05:58N 29°37' W 095°02'0 0.0
2018-May-16 05:28N 29°37' W 095°02'0 0.0
2018-May-16 04:58N 29°37' W 095°02'0 0.0
2018-May-16 04:28N 29°37' W 095°02'0 0.0
2018-May-16 03:58N 29°37' W 095°02'0 0.0
2018-May-16 03:28N 29°37' W 095°02'0 0.0
2018-May-16 02:58N 29°37' W 095°02'0 0.0
2018-May-16 02:28N 29°37' W 095°02'0 0.1
2018-May-16 02:00N 29°37' W 095°01'0 0.2
2018-May-16 01:30N 29°37' W 095°02'0 0.0
2018-May-16 01:00N 29°37' W 095°02'0 0.0
2018-May-16 00:30N 29°37' W 095°02'0 0.0
2018-May-16 00:00N 29°37' W 095°02'0 0.0
2018-May-15 23:30N 29°37' W 095°02'0 0.0
2018-May-15 22:59N 29°37' W 095°02'0 0.1
2018-May-15 22:30N 29°37' W 095°02'3 5.3
2018-May-15 22:00N 29°37' W 094°59'1 2.6
2018-May-15 21:30N 29°38' W 094°58'2 4.3
2018-May-15 21:00N 29°40' W 094°59'3 5.6
2018-May-15 20:30N 29°42' W 095°01'5 3.0
2018-May-15 18:45N 29°45' W 095°06'0 0.1
2018-May-15 15:13N 29°46' W 095°06'0 0.1
2018-May-15 14:36N 29°46' W 095°06'1 4.9
2018-May-15 14:28N 29°46' W 095°05'1 2.5
2018-May-15 13:59N 29°47' W 095°04'1 1.4
2018-May-15 13:29N 29°47' W 095°05'1 2.0
2018-May-15 13:00N 29°47' W 095°04'2 3.5
2018-May-15 12:30N 29°46' W 095°04'1 1.1
2018-May-15 11:32N 29°46' W 095°06'0 0.1
2018-May-15 11:30N 29°46' W 095°06'0 0.8
2018-May-15 11:00N 29°45' W 095°06'0 0.0
2018-May-15 10:30N 29°45' W 095°06'0 0.0
2018-May-15 10:00N 29°45' W 095°06'0 0.0
2018-May-15 08:12N 29°45' W 095°06'0 0.0
2018-May-15 06:33N 29°45' W 095°06'0 0.0
2018-May-15 06:24N 29°45' W 095°06'0 0.0
2018-May-15 05:42N 29°45' W 095°06'0 0.0
2018-May-15 04:15N 29°45' W 095°06'0 0.0
2018-May-15 03:39N 29°45' W 095°06'0 0.0
2018-May-15 03:12N 29°45' W 095°06'0 0.0
2018-May-15 03:00N 29°45' W 095°06'0 0.0
2018-May-15 02:30N 29°45' W 095°06'0 0.0
2018-May-15 01:57N 29°45' W 095°06'0 0.0
2018-May-15 01:30N 29°45' W 095°06'  
2018-May-12 17:02N 29°45' W 095°07'0 1.3
2018-May-12 17:00N 29°45' W 095°06'  

Dump ship's entire track history